sensor_id;sensor_type;location;lat;lon;timestamp;P1;durP1;ratioP1;P2;durP2;ratioP2
67965;SDS011;54749;47.850;9.002;2024-02-28T00:00:14;34.45;;;13.60;;
67965;SDS011;54749;47.850;9.002;2024-02-28T00:03:02;33.88;;;12.77;;
67965;SDS011;54749;47.850;9.002;2024-02-28T00:05:30;32.25;;;12.23;;
67965;SDS011;54749;47.850;9.002;2024-02-28T00:07:58;28.85;;;11.80;;
67965;SDS011;54749;47.850;9.002;2024-02-28T00:10:25;31.80;;;12.80;;
67965;SDS011;54749;47.850;9.002;2024-02-28T00:12:52;30.52;;;12.57;;
67965;SDS011;54749;47.850;9.002;2024-02-28T00:15:19;29.25;;;11.65;;
67965;SDS011;54749;47.850;9.002;2024-02-28T00:17:46;29.98;;;11.07;;
67965;SDS011;54749;47.850;9.002;2024-02-28T00:20:14;31.85;;;12.57;;
67965;SDS011;54749;47.850;9.002;2024-02-28T00:22:41;28.07;;;11.73;;
67965;SDS011;54749;47.850;9.002;2024-02-28T00:25:12;31.60;;;11.20;;
67965;SDS011;54749;47.850;9.002;2024-02-28T00:27:40;26.08;;;10.20;;
67965;SDS011;54749;47.850;9.002;2024-02-28T00:30:08;28.45;;;11.25;;
67965;SDS011;54749;47.850;9.002;2024-02-28T00:32:36;26.67;;;10.60;;
67965;SDS011;54749;47.850;9.002;2024-02-28T00:35:03;25.60;;;10.90;;
67965;SDS011;54749;47.850;9.002;2024-02-28T00:37:30;30.73;;;11.25;;
67965;SDS011;54749;47.850;9.002;2024-02-28T00:39:58;27.95;;;11.55;;
67965;SDS011;54749;47.850;9.002;2024-02-28T00:42:25;29.80;;;11.95;;
67965;SDS011;54749;47.850;9.002;2024-02-28T00:44:54;27.52;;;11.02;;
67965;SDS011;54749;47.850;9.002;2024-02-28T00:47:21;26.00;;;9.97;;
67965;SDS011;54749;47.850;9.002;2024-02-28T00:49:48;27.90;;;10.55;;
67965;SDS011;54749;47.850;9.002;2024-02-28T00:52:15;29.08;;;11.93;;
67965;SDS011;54749;47.850;9.002;2024-02-28T00:54:42;27.83;;;10.77;;
67965;SDS011;54749;47.850;9.002;2024-02-28T00:57:09;27.95;;;11.18;;
67965;SDS011;54749;47.850;9.002;2024-02-28T00:59:37;31.23;;;11.70;;
67965;SDS011;54749;47.850;9.002;2024-02-28T01:02:04;29.60;;;11.23;;
67965;SDS011;54749;47.850;9.002;2024-02-28T01:04:31;26.75;;;10.00;;
67965;SDS011;54749;47.850;9.002;2024-02-28T01:06:58;27.77;;;10.63;;
67965;SDS011;54749;47.850;9.002;2024-02-28T01:09:25;25.98;;;9.77;;
67965;SDS011;54749;47.850;9.002;2024-02-28T01:11:52;27.43;;;10.63;;
67965;SDS011;54749;47.850;9.002;2024-02-28T01:14:20;25.40;;;9.82;;
67965;SDS011;54749;47.850;9.002;2024-02-28T01:16:47;27.27;;;10.55;;
67965;SDS011;54749;47.850;9.002;2024-02-28T01:19:15;24.67;;;9.98;;
67965;SDS011;54749;47.850;9.002;2024-02-28T01:21:42;25.17;;;9.82;;
67965;SDS011;54749;47.850;9.002;2024-02-28T01:24:10;25.10;;;9.87;;
67965;SDS011;54749;47.850;9.002;2024-02-28T01:26:37;27.63;;;10.00;;
67965;SDS011;54749;47.850;9.002;2024-02-28T01:29:04;29.70;;;10.32;;
67965;SDS011;54749;47.850;9.002;2024-02-28T01:31:31;27.00;;;10.02;;
67965;SDS011;54749;47.850;9.002;2024-02-28T01:33:58;26.70;;;10.73;;
67965;SDS011;54749;47.850;9.002;2024-02-28T01:36:25;26.33;;;10.13;;
67965;SDS011;54749;47.850;9.002;2024-02-28T01:38:53;22.00;;;9.50;;
67965;SDS011;54749;47.850;9.002;2024-02-28T01:41:21;23.60;;;9.50;;
67965;SDS011;54749;47.850;9.002;2024-02-28T01:43:48;23.65;;;9.45;;
67965;SDS011;54749;47.850;9.002;2024-02-28T01:46:20;27.02;;;10.45;;
67965;SDS011;54749;47.850;9.002;2024-02-28T01:48:55;25.57;;;10.27;;
67965;SDS011;54749;47.850;9.002;2024-02-28T01:51:24;27.88;;;10.38;;
67965;SDS011;54749;47.850;9.002;2024-02-28T01:53:56;24.48;;;10.05;;
67965;SDS011;54749;47.850;9.002;2024-02-28T01:56:24;27.70;;;11.52;;
67965;SDS011;54749;47.850;9.002;2024-02-28T01:58:53;28.77;;;11.50;;
67965;SDS011;54749;47.850;9.002;2024-02-28T02:01:22;27.93;;;10.97;;
67965;SDS011;54749;47.850;9.002;2024-02-28T02:03:52;26.60;;;10.27;;
67965;SDS011;54749;47.850;9.002;2024-02-28T02:06:20;26.50;;;10.25;;
67965;SDS011;54749;47.850;9.002;2024-02-28T02:08:48;26.52;;;10.00;;
67965;SDS011;54749;47.850;9.002;2024-02-28T02:11:16;24.50;;;9.40;;
67965;SDS011;54749;47.850;9.002;2024-02-28T02:13:49;26.97;;;10.67;;
67965;SDS011;54749;47.850;9.002;2024-02-28T02:16:17;29.10;;;11.60;;
67965;SDS011;54749;47.850;9.002;2024-02-28T02:18:46;36.75;;;12.57;;
67965;SDS011;54749;47.850;9.002;2024-02-28T02:21:18;30.10;;;11.18;;
67965;SDS011;54749;47.850;9.002;2024-02-28T02:23:47;32.38;;;11.73;;
67965;SDS011;54749;47.850;9.002;2024-02-28T02:26:14;25.47;;;10.57;;
67965;SDS011;54749;47.850;9.002;2024-02-28T02:28:41;26.75;;;9.80;;
67965;SDS011;54749;47.850;9.002;2024-02-28T02:31:10;23.55;;;8.90;;
67965;SDS011;54749;47.850;9.002;2024-02-28T02:33:40;24.08;;;8.93;;
67965;SDS011;54749;47.850;9.002;2024-02-28T02:36:07;23.95;;;8.52;;
67965;SDS011;54749;47.850;9.002;2024-02-28T02:38:35;29.67;;;10.93;;
67965;SDS011;54749;47.850;9.002;2024-02-28T02:41:01;26.90;;;10.25;;
67965;SDS011;54749;47.850;9.002;2024-02-28T02:43:29;26.20;;;10.00;;
67965;SDS011;54749;47.850;9.002;2024-02-28T02:45:56;24.08;;;9.57;;
67965;SDS011;54749;47.850;9.002;2024-02-28T02:48:23;25.15;;;9.23;;
67965;SDS011;54749;47.850;9.002;2024-02-28T02:50:50;25.20;;;10.30;;
67965;SDS011;54749;47.850;9.002;2024-02-28T02:53:18;25.23;;;9.63;;
67965;SDS011;54749;47.850;9.002;2024-02-28T02:55:45;25.83;;;9.63;;
67965;SDS011;54749;47.850;9.002;2024-02-28T02:58:13;27.55;;;9.80;;
67965;SDS011;54749;47.850;9.002;2024-02-28T03:00:40;25.52;;;10.15;;
67965;SDS011;54749;47.850;9.002;2024-02-28T03:03:07;25.73;;;10.63;;
67965;SDS011;54749;47.850;9.002;2024-02-28T03:05:35;27.77;;;10.95;;
67965;SDS011;54749;47.850;9.002;2024-02-28T03:08:02;28.30;;;10.55;;
67965;SDS011;54749;47.850;9.002;2024-02-28T03:10:29;23.13;;;9.40;;
67965;SDS011;54749;47.850;9.002;2024-02-28T03:12:56;26.60;;;8.90;;
67965;SDS011;54749;47.850;9.002;2024-02-28T03:15:24;27.47;;;10.80;;
67965;SDS011;54749;47.850;9.002;2024-02-28T03:17:51;31.67;;;12.38;;
67965;SDS011;54749;47.850;9.002;2024-02-28T03:20:18;27.63;;;11.02;;
67965;SDS011;54749;47.850;9.002;2024-02-28T03:22:45;25.08;;;9.50;;
67965;SDS011;54749;47.850;9.002;2024-02-28T03:25:12;23.25;;;8.90;;
67965;SDS011;54749;47.850;9.002;2024-02-28T03:27:40;23.93;;;9.83;;
67965;SDS011;54749;47.850;9.002;2024-02-28T03:30:07;22.40;;;8.77;;
67965;SDS011;54749;47.850;9.002;2024-02-28T03:32:35;26.55;;;9.98;;
67965;SDS011;54749;47.850;9.002;2024-02-28T03:35:02;25.30;;;9.07;;
67965;SDS011;54749;47.850;9.002;2024-02-28T03:37:31;24.65;;;8.48;;
67965;SDS011;54749;47.850;9.002;2024-02-28T03:39:58;23.67;;;9.20;;
67965;SDS011;54749;47.850;9.002;2024-02-28T03:42:25;27.27;;;10.18;;
67965;SDS011;54749;47.850;9.002;2024-02-28T03:44:52;28.00;;;9.52;;
67965;SDS011;54749;47.850;9.002;2024-02-28T03:47:19;22.67;;;9.00;;
67965;SDS011;54749;47.850;9.002;2024-02-28T03:49:46;25.90;;;9.73;;
67965;SDS011;54749;47.850;9.002;2024-02-28T03:52:14;25.27;;;9.80;;
67965;SDS011;54749;47.850;9.002;2024-02-28T03:54:44;30.60;;;11.45;;
67965;SDS011;54749;47.850;9.002;2024-02-28T03:57:11;27.02;;;10.00;;
67965;SDS011;54749;47.850;9.002;2024-02-28T03:59:40;32.33;;;12.35;;
67965;SDS011;54749;47.850;9.002;2024-02-28T04:02:08;35.20;;;12.73;;
67965;SDS011;54749;47.850;9.002;2024-02-28T04:04:35;29.77;;;11.20;;
67965;SDS011;54749;47.850;9.002;2024-02-28T04:07:02;25.67;;;9.70;;
67965;SDS011;54749;47.850;9.002;2024-02-28T04:09:29;33.67;;;12.20;;
67965;SDS011;54749;47.850;9.002;2024-02-28T04:11:56;24.35;;;9.20;;
67965;SDS011;54749;47.850;9.002;2024-02-28T04:14:23;25.13;;;8.13;;
67965;SDS011;54749;47.850;9.002;2024-02-28T04:16:51;24.43;;;9.07;;
67965;SDS011;54749;47.850;9.002;2024-02-28T04:19:18;22.50;;;7.93;;
67965;SDS011;54749;47.850;9.002;2024-02-28T04:21:45;19.20;;;7.13;;
67965;SDS011;54749;47.850;9.002;2024-02-28T04:24:12;22.55;;;8.80;;
67965;SDS011;54749;47.850;9.002;2024-02-28T04:26:43;23.10;;;8.75;;
67965;SDS011;54749;47.850;9.002;2024-02-28T04:29:10;21.40;;;6.80;;
67965;SDS011;54749;47.850;9.002;2024-02-28T04:31:41;18.40;;;6.55;;
67965;SDS011;54749;47.850;9.002;2024-02-28T04:34:08;19.52;;;7.15;;
67965;SDS011;54749;47.850;9.002;2024-02-28T04:36:35;18.35;;;6.57;;
67965;SDS011;54749;47.850;9.002;2024-02-28T04:39:02;19.90;;;7.10;;
67965;SDS011;54749;47.850;9.002;2024-02-28T04:41:33;20.33;;;7.30;;
67965;SDS011;54749;47.850;9.002;2024-02-28T04:44:01;27.90;;;10.02;;
67965;SDS011;54749;47.850;9.002;2024-02-28T04:46:28;28.75;;;9.57;;
67965;SDS011;54749;47.850;9.002;2024-02-28T04:48:55;22.67;;;8.25;;
67965;SDS011;54749;47.850;9.002;2024-02-28T04:51:22;20.25;;;7.20;;
67965;SDS011;54749;47.850;9.002;2024-02-28T04:53:49;19.93;;;7.10;;
67965;SDS011;54749;47.850;9.002;2024-02-28T04:56:17;24.83;;;9.07;;
67965;SDS011;54749;47.850;9.002;2024-02-28T04:58:44;23.63;;;7.95;;
67965;SDS011;54749;47.850;9.002;2024-02-28T05:01:11;19.55;;;6.15;;
67965;SDS011;54749;47.850;9.002;2024-02-28T05:03:39;18.15;;;6.53;;
67965;SDS011;54749;47.850;9.002;2024-02-28T05:06:07;22.37;;;8.83;;
67965;SDS011;54749;47.850;9.002;2024-02-28T05:08:37;22.60;;;8.43;;
67965;SDS011;54749;47.850;9.002;2024-02-28T05:11:04;24.20;;;9.20;;
67965;SDS011;54749;47.850;9.002;2024-02-28T05:13:31;30.35;;;10.90;;
67965;SDS011;54749;47.850;9.002;2024-02-28T05:15:59;30.38;;;11.05;;
67965;SDS011;54749;47.850;9.002;2024-02-28T05:18:26;32.57;;;11.30;;
67965;SDS011;54749;47.850;9.002;2024-02-28T05:20:53;30.77;;;10.43;;
67965;SDS011;54749;47.850;9.002;2024-02-28T05:23:20;29.67;;;10.90;;
67965;SDS011;54749;47.850;9.002;2024-02-28T05:25:48;31.02;;;10.80;;
67965;SDS011;54749;47.850;9.002;2024-02-28T05:28:15;35.15;;;12.10;;
67965;SDS011;54749;47.850;9.002;2024-02-28T05:30:42;31.60;;;11.03;;
67965;SDS011;54749;47.850;9.002;2024-02-28T05:33:14;27.88;;;10.88;;
67965;SDS011;54749;47.850;9.002;2024-02-28T05:35:41;26.42;;;10.32;;
67965;SDS011;54749;47.850;9.002;2024-02-28T05:38:08;27.85;;;9.95;;
67965;SDS011;54749;47.850;9.002;2024-02-28T05:40:36;30.40;;;9.45;;
67965;SDS011;54749;47.850;9.002;2024-02-28T05:43:03;29.30;;;9.97;;
67965;SDS011;54749;47.850;9.002;2024-02-28T05:45:31;24.85;;;8.75;;
67965;SDS011;54749;47.850;9.002;2024-02-28T05:47:58;30.30;;;10.27;;
67965;SDS011;54749;47.850;9.002;2024-02-28T05:50:25;24.17;;;8.75;;
67965;SDS011;54749;47.850;9.002;2024-02-28T05:52:53;33.40;;;12.00;;
67965;SDS011;54749;47.850;9.002;2024-02-28T05:55:21;26.00;;;9.07;;
67965;SDS011;54749;47.850;9.002;2024-02-28T05:57:50;23.20;;;8.30;;
67965;SDS011;54749;47.850;9.002;2024-02-28T06:00:18;21.90;;;8.20;;
67965;SDS011;54749;47.850;9.002;2024-02-28T06:02:45;19.92;;;7.65;;
67965;SDS011;54749;47.850;9.002;2024-02-28T06:05:13;25.45;;;9.40;;
67965;SDS011;54749;47.850;9.002;2024-02-28T06:07:40;30.47;;;10.80;;
67965;SDS011;54749;47.850;9.002;2024-02-28T06:10:07;28.25;;;10.65;;
67965;SDS011;54749;47.850;9.002;2024-02-28T06:12:34;25.85;;;8.93;;
67965;SDS011;54749;47.850;9.002;2024-02-28T06:15:02;26.85;;;9.18;;
67965;SDS011;54749;47.850;9.002;2024-02-28T06:17:31;22.80;;;8.50;;
67965;SDS011;54749;47.850;9.002;2024-02-28T06:19:58;24.03;;;8.43;;
67965;SDS011;54749;47.850;9.002;2024-02-28T06:22:25;29.08;;;8.82;;
67965;SDS011;54749;47.850;9.002;2024-02-28T06:24:52;24.67;;;9.32;;
67965;SDS011;54749;47.850;9.002;2024-02-28T06:27:20;19.27;;;7.82;;
67965;SDS011;54749;47.850;9.002;2024-02-28T06:29:47;21.08;;;8.02;;
67965;SDS011;54749;47.850;9.002;2024-02-28T06:32:15;23.00;;;7.77;;
67965;SDS011;54749;47.850;9.002;2024-02-28T06:34:42;21.42;;;7.30;;
67965;SDS011;54749;47.850;9.002;2024-02-28T06:37:09;20.50;;;7.45;;
67965;SDS011;54749;47.850;9.002;2024-02-28T06:39:37;25.55;;;9.68;;
67965;SDS011;54749;47.850;9.002;2024-02-28T06:42:04;24.20;;;8.32;;
67965;SDS011;54749;47.850;9.002;2024-02-28T06:44:31;23.37;;;8.23;;
67965;SDS011;54749;47.850;9.002;2024-02-28T06:46:58;20.42;;;7.13;;
67965;SDS011;54749;47.850;9.002;2024-02-28T06:49:26;25.38;;;9.85;;
67965;SDS011;54749;47.850;9.002;2024-02-28T06:51:53;29.45;;;10.98;;
67965;SDS011;54749;47.850;9.002;2024-02-28T06:54:20;31.67;;;12.02;;
67965;SDS011;54749;47.850;9.002;2024-02-28T06:56:47;29.63;;;10.37;;
67965;SDS011;54749;47.850;9.002;2024-02-28T06:59:14;25.23;;;9.73;;
67965;SDS011;54749;47.850;9.002;2024-02-28T07:01:41;22.95;;;8.95;;
67965;SDS011;54749;47.850;9.002;2024-02-28T07:04:09;23.02;;;8.60;;
67965;SDS011;54749;47.850;9.002;2024-02-28T07:06:36;28.25;;;10.00;;
67965;SDS011;54749;47.850;9.002;2024-02-28T07:09:03;23.37;;;8.57;;
67965;SDS011;54749;47.850;9.002;2024-02-28T07:11:30;19.95;;;7.15;;
67965;SDS011;54749;47.850;9.002;2024-02-28T07:13:58;24.00;;;8.45;;
67965;SDS011;54749;47.850;9.002;2024-02-28T07:16:29;22.92;;;8.82;;
67965;SDS011;54749;47.850;9.002;2024-02-28T07:18:56;24.60;;;8.73;;
67965;SDS011;54749;47.850;9.002;2024-02-28T07:21:23;29.00;;;10.93;;
67965;SDS011;54749;47.850;9.002;2024-02-28T07:23:51;27.42;;;10.95;;
67965;SDS011;54749;47.850;9.002;2024-02-28T07:26:18;31.55;;;10.68;;
67965;SDS011;54749;47.850;9.002;2024-02-28T07:28:53;26.52;;;10.90;;
67965;SDS011;54749;47.850;9.002;2024-02-28T07:31:20;28.17;;;10.05;;
67965;SDS011;54749;47.850;9.002;2024-02-28T07:33:47;29.90;;;11.63;;
67965;SDS011;54749;47.850;9.002;2024-02-28T07:36:14;29.52;;;11.00;;
67965;SDS011;54749;47.850;9.002;2024-02-28T07:38:42;28.80;;;10.73;;
67965;SDS011;54749;47.850;9.002;2024-02-28T07:41:09;24.52;;;10.32;;
67965;SDS011;54749;47.850;9.002;2024-02-28T07:43:36;26.98;;;9.75;;
67965;SDS011;54749;47.850;9.002;2024-02-28T07:46:07;33.67;;;11.47;;
67965;SDS011;54749;47.850;9.002;2024-02-28T07:48:39;25.98;;;9.38;;
67965;SDS011;54749;47.850;9.002;2024-02-28T07:51:07;25.80;;;10.23;;
67965;SDS011;54749;47.850;9.002;2024-02-28T07:53:35;28.27;;;10.55;;
67965;SDS011;54749;47.850;9.002;2024-02-28T07:56:02;26.65;;;10.48;;
67965;SDS011;54749;47.850;9.002;2024-02-28T07:58:30;28.17;;;11.63;;
67965;SDS011;54749;47.850;9.002;2024-02-28T08:00:57;28.60;;;11.25;;
67965;SDS011;54749;47.850;9.002;2024-02-28T08:03:24;22.90;;;8.57;;
67965;SDS011;54749;47.850;9.002;2024-02-28T08:05:51;25.05;;;10.00;;
67965;SDS011;54749;47.850;9.002;2024-02-28T08:08:18;21.45;;;8.63;;
67965;SDS011;54749;47.850;9.002;2024-02-28T08:10:45;26.33;;;9.37;;
67965;SDS011;54749;47.850;9.002;2024-02-28T08:13:14;26.95;;;10.88;;
67965;SDS011;54749;47.850;9.002;2024-02-28T08:15:41;24.05;;;9.65;;
67965;SDS011;54749;47.850;9.002;2024-02-28T08:18:09;30.15;;;11.70;;
67965;SDS011;54749;47.850;9.002;2024-02-28T08:20:38;29.45;;;12.18;;
67965;SDS011;54749;47.850;9.002;2024-02-28T08:23:05;24.00;;;10.73;;
67965;SDS011;54749;47.850;9.002;2024-02-28T08:25:33;30.63;;;12.02;;
67965;SDS011;54749;47.850;9.002;2024-02-28T08:28:00;27.67;;;11.73;;
67965;SDS011;54749;47.850;9.002;2024-02-28T08:30:27;28.83;;;10.73;;
67965;SDS011;54749;47.850;9.002;2024-02-28T08:32:55;27.67;;;10.80;;
67965;SDS011;54749;47.850;9.002;2024-02-28T08:35:22;27.03;;;11.07;;
67965;SDS011;54749;47.850;9.002;2024-02-28T08:37:50;28.23;;;11.38;;
67965;SDS011;54749;47.850;9.002;2024-02-28T08:40:18;25.65;;;11.40;;
67965;SDS011;54749;47.850;9.002;2024-02-28T08:42:45;27.45;;;11.23;;
67965;SDS011;54749;47.850;9.002;2024-02-28T08:45:13;27.23;;;11.23;;
67965;SDS011;54749;47.850;9.002;2024-02-28T08:47:40;29.17;;;12.37;;
67965;SDS011;54749;47.850;9.002;2024-02-28T08:50:08;25.83;;;10.98;;
67965;SDS011;54749;47.850;9.002;2024-02-28T08:52:35;28.42;;;11.45;;
67965;SDS011;54749;47.850;9.002;2024-02-28T08:55:03;24.63;;;10.90;;
67965;SDS011;54749;47.850;9.002;2024-02-28T08:57:31;29.48;;;12.35;;
67965;SDS011;54749;47.850;9.002;2024-02-28T08:59:58;29.47;;;12.47;;
67965;SDS011;54749;47.850;9.002;2024-02-28T09:02:25;27.92;;;11.30;;
67965;SDS011;54749;47.850;9.002;2024-02-28T09:04:52;27.25;;;10.88;;
67965;SDS011;54749;47.850;9.002;2024-02-28T09:07:24;26.42;;;11.88;;
67965;SDS011;54749;47.850;9.002;2024-02-28T09:09:51;27.48;;;11.23;;
67965;SDS011;54749;47.850;9.002;2024-02-28T09:12:18;28.90;;;11.93;;
67965;SDS011;54749;47.850;9.002;2024-02-28T09:14:45;25.58;;;10.35;;
67965;SDS011;54749;47.850;9.002;2024-02-28T09:17:12;30.60;;;12.68;;
67965;SDS011;54749;47.850;9.002;2024-02-28T09:19:40;28.52;;;12.27;;
67965;SDS011;54749;47.850;9.002;2024-02-28T09:22:07;28.70;;;11.98;;
67965;SDS011;54749;47.850;9.002;2024-02-28T09:24:34;34.73;;;12.30;;
67965;SDS011;54749;47.850;9.002;2024-02-28T09:27:05;28.17;;;12.27;;
67965;SDS011;54749;47.850;9.002;2024-02-28T09:29:32;29.40;;;13.35;;
67965;SDS011;54749;47.850;9.002;2024-02-28T09:32:00;28.00;;;12.27;;
67965;SDS011;54749;47.850;9.002;2024-02-28T09:34:27;32.60;;;12.73;;
67965;SDS011;54749;47.850;9.002;2024-02-28T09:36:54;29.03;;;11.50;;
67965;SDS011;54749;47.850;9.002;2024-02-28T09:39:21;29.83;;;12.65;;
67965;SDS011;54749;47.850;9.002;2024-02-28T09:41:49;31.38;;;13.15;;
67965;SDS011;54749;47.850;9.002;2024-02-28T09:44:16;27.00;;;12.02;;
67965;SDS011;54749;47.850;9.002;2024-02-28T09:46:44;28.77;;;11.52;;
67965;SDS011;54749;47.850;9.002;2024-02-28T09:49:11;33.17;;;12.13;;
67965;SDS011;54749;47.850;9.002;2024-02-28T09:51:40;28.15;;;10.75;;
67965;SDS011;54749;47.850;9.002;2024-02-28T09:54:08;31.08;;;11.30;;
67965;SDS011;54749;47.850;9.002;2024-02-28T09:56:35;34.83;;;12.52;;
67965;SDS011;54749;47.850;9.002;2024-02-28T09:59:02;30.38;;;11.63;;
67965;SDS011;54749;47.850;9.002;2024-02-28T10:01:30;28.13;;;11.63;;
67965;SDS011;54749;47.850;9.002;2024-02-28T10:04:02;28.35;;;11.27;;
67965;SDS011;54749;47.850;9.002;2024-02-28T10:06:30;30.05;;;12.00;;
67965;SDS011;54749;47.850;9.002;2024-02-28T10:08:57;29.02;;;11.50;;
67965;SDS011;54749;47.850;9.002;2024-02-28T10:11:25;30.23;;;11.55;;
67965;SDS011;54749;47.850;9.002;2024-02-28T10:13:52;28.80;;;12.67;;
67965;SDS011;54749;47.850;9.002;2024-02-28T10:16:22;31.92;;;12.43;;
67965;SDS011;54749;47.850;9.002;2024-02-28T10:18:49;32.85;;;12.48;;
67965;SDS011;54749;47.850;9.002;2024-02-28T10:21:17;30.30;;;11.85;;
67965;SDS011;54749;47.850;9.002;2024-02-28T10:23:44;31.60;;;12.30;;
67965;SDS011;54749;47.850;9.002;2024-02-28T10:26:12;29.00;;;12.50;;
67965;SDS011;54749;47.850;9.002;2024-02-28T10:28:40;30.33;;;12.60;;
67965;SDS011;54749;47.850;9.002;2024-02-28T10:31:07;25.40;;;11.32;;
67965;SDS011;54749;47.850;9.002;2024-02-28T10:33:35;26.48;;;11.95;;
67965;SDS011;54749;47.850;9.002;2024-02-28T10:36:03;27.98;;;11.65;;
67965;SDS011;54749;47.850;9.002;2024-02-28T10:38:32;29.37;;;12.50;;
67965;SDS011;54749;47.850;9.002;2024-02-28T10:41:05;27.17;;;10.85;;
67965;SDS011;54749;47.850;9.002;2024-02-28T10:43:37;29.75;;;12.18;;
67965;SDS011;54749;47.850;9.002;2024-02-28T10:46:06;26.10;;;11.35;;
67965;SDS011;54749;47.850;9.002;2024-02-28T10:48:55;26.40;;;11.32;;
67965;SDS011;54749;47.850;9.002;2024-02-28T10:51:24;31.10;;;12.67;;
67965;SDS011;54749;47.850;9.002;2024-02-28T10:54:08;26.63;;;11.90;;
67965;SDS011;54749;47.850;9.002;2024-02-28T10:56:40;29.45;;;12.85;;
67965;SDS011;54749;47.850;9.002;2024-02-28T10:59:09;27.10;;;11.88;;
67965;SDS011;54749;47.850;9.002;2024-02-28T11:01:39;27.05;;;12.20;;
67965;SDS011;54749;47.850;9.002;2024-02-28T11:04:12;27.17;;;11.83;;
67965;SDS011;54749;47.850;9.002;2024-02-28T11:06:47;26.13;;;12.15;;
67965;SDS011;54749;47.850;9.002;2024-02-28T11:09:23;27.50;;;12.05;;
67965;SDS011;54749;47.850;9.002;2024-02-28T11:11:55;26.98;;;12.10;;
67965;SDS011;54749;47.850;9.002;2024-02-28T11:14:23;26.27;;;12.20;;
67965;SDS011;54749;47.850;9.002;2024-02-28T11:17:03;31.40;;;12.77;;
67965;SDS011;54749;47.850;9.002;2024-02-28T11:19:32;28.58;;;12.45;;
67965;SDS011;54749;47.850;9.002;2024-02-28T11:22:02;28.25;;;11.50;;
67965;SDS011;54749;47.850;9.002;2024-02-28T11:24:33;30.92;;;12.23;;
67965;SDS011;54749;47.850;9.002;2024-02-28T11:27:02;29.85;;;11.88;;
67965;SDS011;54749;47.850;9.002;2024-02-28T11:29:30;27.23;;;12.17;;
67965;SDS011;54749;47.850;9.002;2024-02-28T11:31:58;23.48;;;10.10;;
67965;SDS011;54749;47.850;9.002;2024-02-28T11:34:25;23.65;;;11.10;;
67965;SDS011;54749;47.850;9.002;2024-02-28T11:36:53;29.58;;;12.38;;
67965;SDS011;54749;47.850;9.002;2024-02-28T11:39:23;25.80;;;12.07;;
67965;SDS011;54749;47.850;9.002;2024-02-28T11:41:52;25.07;;;11.53;;
67965;SDS011;54749;47.850;9.002;2024-02-28T11:44:20;27.60;;;11.52;;
67965;SDS011;54749;47.850;9.002;2024-02-28T11:46:48;27.65;;;11.90;;
67965;SDS011;54749;47.850;9.002;2024-02-28T11:49:16;29.88;;;13.98;;
67965;SDS011;54749;47.850;9.002;2024-02-28T11:51:43;28.73;;;12.15;;
67965;SDS011;54749;47.850;9.002;2024-02-28T11:54:11;31.00;;;13.70;;
67965;SDS011;54749;47.850;9.002;2024-02-28T11:56:39;27.05;;;11.73;;
67965;SDS011;54749;47.850;9.002;2024-02-28T11:59:08;28.67;;;12.23;;
67965;SDS011;54749;47.850;9.002;2024-02-28T12:01:40;25.85;;;10.82;;
67965;SDS011;54749;47.850;9.002;2024-02-28T12:04:11;29.58;;;11.93;;
67965;SDS011;54749;47.850;9.002;2024-02-28T12:06:39;26.30;;;11.40;;
67965;SDS011;54749;47.850;9.002;2024-02-28T12:09:07;25.10;;;11.80;;
67965;SDS011;54749;47.850;9.002;2024-02-28T12:11:36;25.42;;;11.05;;
67965;SDS011;54749;47.850;9.002;2024-02-28T12:14:04;29.05;;;12.60;;
67965;SDS011;54749;47.850;9.002;2024-02-28T12:16:36;29.75;;;12.07;;
67965;SDS011;54749;47.850;9.002;2024-02-28T12:19:11;29.70;;;12.33;;
67965;SDS011;54749;47.850;9.002;2024-02-28T12:21:40;27.90;;;12.63;;
67965;SDS011;54749;47.850;9.002;2024-02-28T12:24:07;25.35;;;11.38;;
67965;SDS011;54749;47.850;9.002;2024-02-28T12:26:37;23.75;;;10.48;;
67965;SDS011;54749;47.850;9.002;2024-02-28T12:29:05;26.52;;;12.60;;
67965;SDS011;54749;47.850;9.002;2024-02-28T12:31:33;27.10;;;11.73;;
67965;SDS011;54749;47.850;9.002;2024-02-28T12:34:00;26.35;;;11.13;;
67965;SDS011;54749;47.850;9.002;2024-02-28T12:36:28;28.65;;;11.43;;
67965;SDS011;54749;47.850;9.002;2024-02-28T12:38:56;26.90;;;11.93;;
67965;SDS011;54749;47.850;9.002;2024-02-28T12:41:25;28.20;;;12.90;;
67965;SDS011;54749;47.850;9.002;2024-02-28T12:43:55;26.30;;;11.70;;
67965;SDS011;54749;47.850;9.002;2024-02-28T12:46:22;27.00;;;11.38;;
67965;SDS011;54749;47.850;9.002;2024-02-28T12:48:49;27.73;;;11.68;;
67965;SDS011;54749;47.850;9.002;2024-02-28T12:54:15;25.35;;;10.98;;
67965;SDS011;54749;47.850;9.002;2024-02-28T12:56:42;26.67;;;11.37;;
67965;SDS011;54749;47.850;9.002;2024-02-28T12:59:10;26.80;;;11.80;;
67965;SDS011;54749;47.850;9.002;2024-02-28T13:01:37;26.40;;;11.52;;
67965;SDS011;54749;47.850;9.002;2024-02-28T13:04:05;23.73;;;10.73;;
67965;SDS011;54749;47.850;9.002;2024-02-28T13:06:33;24.45;;;10.90;;
67965;SDS011;54749;47.850;9.002;2024-02-28T13:09:00;29.27;;;10.87;;
67965;SDS011;54749;47.850;9.002;2024-02-28T13:11:27;25.83;;;11.90;;
67965;SDS011;54749;47.850;9.002;2024-02-28T13:13:55;24.98;;;10.65;;
67965;SDS011;54749;47.850;9.002;2024-02-28T13:16:22;26.35;;;11.55;;
67965;SDS011;54749;47.850;9.002;2024-02-28T13:18:49;27.60;;;11.05;;
67965;SDS011;54749;47.850;9.002;2024-02-28T13:21:17;27.17;;;10.83;;
67965;SDS011;54749;47.850;9.002;2024-02-28T13:23:44;26.23;;;12.05;;
67965;SDS011;54749;47.850;9.002;2024-02-28T13:26:11;26.95;;;11.70;;
67965;SDS011;54749;47.850;9.002;2024-02-28T13:28:45;25.52;;;10.90;;
67965;SDS011;54749;47.850;9.002;2024-02-28T13:31:16;24.05;;;10.70;;
67965;SDS011;54749;47.850;9.002;2024-02-28T13:33:43;25.27;;;10.67;;
67965;SDS011;54749;47.850;9.002;2024-02-28T13:36:11;26.52;;;11.60;;
67965;SDS011;54749;47.850;9.002;2024-02-28T13:38:38;24.98;;;11.25;;
67965;SDS011;54749;47.850;9.002;2024-02-28T13:41:05;27.52;;;12.05;;
67965;SDS011;54749;47.850;9.002;2024-02-28T13:43:32;29.52;;;13.10;;
67965;SDS011;54749;47.850;9.002;2024-02-28T13:46:00;27.57;;;11.83;;
67965;SDS011;54749;47.850;9.002;2024-02-28T13:48:27;26.40;;;11.57;;
67965;SDS011;54749;47.850;9.002;2024-02-28T13:51:00;27.30;;;11.98;;
67965;SDS011;54749;47.850;9.002;2024-02-28T13:53:29;28.45;;;11.98;;
67965;SDS011;54749;47.850;9.002;2024-02-28T13:55:56;28.90;;;12.23;;
67965;SDS011;54749;47.850;9.002;2024-02-28T13:58:23;32.60;;;12.73;;
67965;SDS011;54749;47.850;9.002;2024-02-28T14:01:01;28.00;;;11.90;;
67965;SDS011;54749;47.850;9.002;2024-02-28T14:03:28;25.70;;;10.70;;
67965;SDS011;54749;47.850;9.002;2024-02-28T14:05:56;27.75;;;11.50;;
67965;SDS011;54749;47.850;9.002;2024-02-28T14:08:23;27.02;;;11.02;;
67965;SDS011;54749;47.850;9.002;2024-02-28T14:10:50;28.63;;;11.93;;
67965;SDS011;54749;47.850;9.002;2024-02-28T14:13:18;26.20;;;11.50;;
67965;SDS011;54749;47.850;9.002;2024-02-28T14:15:45;27.13;;;10.90;;
67965;SDS011;54749;47.850;9.002;2024-02-28T14:18:13;30.70;;;11.60;;
67965;SDS011;54749;47.850;9.002;2024-02-28T14:20:40;28.00;;;10.85;;
67965;SDS011;54749;47.850;9.002;2024-02-28T14:23:07;27.30;;;12.03;;
67965;SDS011;54749;47.850;9.002;2024-02-28T14:25:35;27.90;;;11.85;;
67965;SDS011;54749;47.850;9.002;2024-02-28T14:28:01;27.10;;;11.05;;
67965;SDS011;54749;47.850;9.002;2024-02-28T14:30:29;29.38;;;12.38;;
67965;SDS011;54749;47.850;9.002;2024-02-28T14:32:56;26.40;;;10.80;;